sensor_id;sensor_type;location;lat;lon;timestamp;P1;durP1;ratioP1;P2;durP2;ratioP2
7045;SDS011;3564;53.326;10.356;2023-11-21T00:00:17;4.80;;;3.00;;
7045;SDS011;3564;53.326;10.356;2023-11-21T00:02:43;4.17;;;3.23;;
7045;SDS011;3564;53.326;10.356;2023-11-21T00:05:11;3.87;;;3.27;;
7045;SDS011;3564;53.326;10.356;2023-11-21T00:07:39;5.30;;;3.50;;
7045;SDS011;3564;53.326;10.356;2023-11-21T00:10:04;5.07;;;4.07;;
7045;SDS011;3564;53.326;10.356;2023-11-21T00:12:31;6.90;;;4.40;;
7045;SDS011;3564;53.326;10.356;2023-11-21T00:14:58;6.57;;;4.47;;
7045;SDS011;3564;53.326;10.356;2023-11-21T00:17:24;7.07;;;4.67;;
7045;SDS011;3564;53.326;10.356;2023-11-21T00:19:49;6.57;;;4.87;;
7045;SDS011;3564;53.326;10.356;2023-11-21T00:22:17;6.67;;;4.83;;
7045;SDS011;3564;53.326;10.356;2023-11-21T00:24:44;7.47;;;5.13;;
7045;SDS011;3564;53.326;10.356;2023-11-21T00:27:09;8.27;;;5.77;;
7045;SDS011;3564;53.326;10.356;2023-11-21T00:29:35;8.40;;;5.27;;
7045;SDS011;3564;53.326;10.356;2023-11-21T00:32:01;8.03;;;5.53;;
7045;SDS011;3564;53.326;10.356;2023-11-21T00:34:27;8.27;;;5.40;;
7045;SDS011;3564;53.326;10.356;2023-11-21T00:36:52;7.37;;;5.60;;
7045;SDS011;3564;53.326;10.356;2023-11-21T00:39:18;6.07;;;5.23;;
7045;SDS011;3564;53.326;10.356;2023-11-21T00:41:43;6.73;;;5.40;;
7045;SDS011;3564;53.326;10.356;2023-11-21T00:44:10;6.57;;;5.50;;
7045;SDS011;3564;53.326;10.356;2023-11-21T00:46:35;8.10;;;5.07;;
7045;SDS011;3564;53.326;10.356;2023-11-21T00:49:01;7.13;;;5.37;;
7045;SDS011;3564;53.326;10.356;2023-11-21T00:51:29;7.30;;;5.23;;
7045;SDS011;3564;53.326;10.356;2023-11-21T00:53:56;7.03;;;5.23;;
7045;SDS011;3564;53.326;10.356;2023-11-21T00:56:22;6.90;;;5.00;;
7045;SDS011;3564;53.326;10.356;2023-11-21T00:58:48;8.37;;;5.10;;
7045;SDS011;3564;53.326;10.356;2023-11-21T01:01:17;8.97;;;5.90;;
7045;SDS011;3564;53.326;10.356;2023-11-21T01:03:43;9.17;;;6.37;;
7045;SDS011;3564;53.326;10.356;2023-11-21T01:06:11;8.93;;;6.00;;
7045;SDS011;3564;53.326;10.356;2023-11-21T01:08:36;7.90;;;6.83;;
7045;SDS011;3564;53.326;10.356;2023-11-21T01:11:02;9.30;;;6.70;;
7045;SDS011;3564;53.326;10.356;2023-11-21T01:13:28;7.90;;;6.30;;
7045;SDS011;3564;53.326;10.356;2023-11-21T01:15:54;10.70;;;6.83;;
7045;SDS011;3564;53.326;10.356;2023-11-21T01:18:20;10.33;;;7.50;;
7045;SDS011;3564;53.326;10.356;2023-11-21T01:20:46;10.67;;;6.93;;
7045;SDS011;3564;53.326;10.356;2023-11-21T01:23:12;9.17;;;6.53;;
7045;SDS011;3564;53.326;10.356;2023-11-21T01:25:39;9.90;;;6.90;;
7045;SDS011;3564;53.326;10.356;2023-11-21T01:28:05;12.90;;;7.63;;
7045;SDS011;3564;53.326;10.356;2023-11-21T01:30:31;13.33;;;8.37;;
7045;SDS011;3564;53.326;10.356;2023-11-21T01:32:58;11.30;;;7.97;;
7045;SDS011;3564;53.326;10.356;2023-11-21T01:35:23;10.03;;;7.63;;
7045;SDS011;3564;53.326;10.356;2023-11-21T01:37:49;10.87;;;7.93;;
7045;SDS011;3564;53.326;10.356;2023-11-21T01:40:15;10.30;;;7.80;;
7045;SDS011;3564;53.326;10.356;2023-11-21T01:42:41;11.23;;;8.67;;
7045;SDS011;3564;53.326;10.356;2023-11-21T01:45:09;11.00;;;8.00;;
7045;SDS011;3564;53.326;10.356;2023-11-21T01:47:37;11.00;;;8.00;;
7045;SDS011;3564;53.326;10.356;2023-11-21T01:50:06;11.27;;;8.23;;
7045;SDS011;3564;53.326;10.356;2023-11-21T01:52:37;12.90;;;9.10;;
7045;SDS011;3564;53.326;10.356;2023-11-21T01:55:05;11.33;;;8.23;;
7045;SDS011;3564;53.326;10.356;2023-11-21T01:57:37;14.40;;;7.87;;
7045;SDS011;3564;53.326;10.356;2023-11-21T02:00:03;9.70;;;7.73;;
7045;SDS011;3564;53.326;10.356;2023-11-21T02:02:49;8.93;;;7.33;;
7045;SDS011;3564;53.326;10.356;2023-11-21T02:05:16;12.00;;;8.37;;
7045;SDS011;3564;53.326;10.356;2023-11-21T02:07:46;9.50;;;7.67;;
7045;SDS011;3564;53.326;10.356;2023-11-21T02:10:13;10.07;;;8.10;;
7045;SDS011;3564;53.326;10.356;2023-11-21T02:12:40;9.00;;;7.03;;
7045;SDS011;3564;53.326;10.356;2023-11-21T02:15:07;7.70;;;6.80;;
7045;SDS011;3564;53.326;10.356;2023-11-21T02:17:52;12.10;;;7.80;;
7045;SDS011;3564;53.326;10.356;2023-11-21T02:20:19;10.27;;;8.10;;
7045;SDS011;3564;53.326;10.356;2023-11-21T02:22:48;9.80;;;7.43;;
7045;SDS011;3564;53.326;10.356;2023-11-21T02:25:22;9.20;;;7.13;;
7045;SDS011;3564;53.326;10.356;2023-11-21T02:27:49;9.67;;;6.43;;
7045;SDS011;3564;53.326;10.356;2023-11-21T02:30:15;10.20;;;7.17;;
7045;SDS011;3564;53.326;10.356;2023-11-21T02:32:41;9.23;;;6.83;;
7045;SDS011;3564;53.326;10.356;2023-11-21T02:35:08;10.37;;;7.40;;
7045;SDS011;3564;53.326;10.356;2023-11-21T02:37:34;7.90;;;6.77;;
7045;SDS011;3564;53.326;10.356;2023-11-21T02:40:00;7.57;;;5.90;;
7045;SDS011;3564;53.326;10.356;2023-11-21T02:42:29;7.03;;;5.60;;
7045;SDS011;3564;53.326;10.356;2023-11-21T02:44:55;7.10;;;5.73;;
7045;SDS011;3564;53.326;10.356;2023-11-21T02:47:21;7.13;;;5.53;;
7045;SDS011;3564;53.326;10.356;2023-11-21T02:49:48;8.27;;;6.27;;
7045;SDS011;3564;53.326;10.356;2023-11-21T02:52:15;9.57;;;6.43;;
7045;SDS011;3564;53.326;10.356;2023-11-21T02:54:41;7.40;;;6.00;;
7045;SDS011;3564;53.326;10.356;2023-11-21T02:57:07;7.07;;;5.60;;
7045;SDS011;3564;53.326;10.356;2023-11-21T02:59:33;6.57;;;5.13;;
7045;SDS011;3564;53.326;10.356;2023-11-21T03:01:59;6.43;;;5.70;;
7045;SDS011;3564;53.326;10.356;2023-11-21T03:04:25;7.47;;;5.73;;
7045;SDS011;3564;53.326;10.356;2023-11-21T03:06:51;10.50;;;5.43;;
7045;SDS011;3564;53.326;10.356;2023-11-21T03:09:16;7.47;;;5.40;;
7045;SDS011;3564;53.326;10.356;2023-11-21T03:11:42;6.23;;;5.20;;
7045;SDS011;3564;53.326;10.356;2023-11-21T03:14:07;6.90;;;5.80;;
7045;SDS011;3564;53.326;10.356;2023-11-21T03:16:33;9.37;;;5.83;;
7045;SDS011;3564;53.326;10.356;2023-11-21T03:18:59;7.07;;;5.23;;
7045;SDS011;3564;53.326;10.356;2023-11-21T03:21:24;8.73;;;5.07;;
7045;SDS011;3564;53.326;10.356;2023-11-21T03:23:51;7.57;;;5.10;;
7045;SDS011;3564;53.326;10.356;2023-11-21T03:26:17;9.33;;;5.70;;
7045;SDS011;3564;53.326;10.356;2023-11-21T03:28:43;7.03;;;5.43;;
7045;SDS011;3564;53.326;10.356;2023-11-21T03:31:08;6.03;;;4.87;;
7045;SDS011;3564;53.326;10.356;2023-11-21T03:33:34;6.90;;;5.13;;
7045;SDS011;3564;53.326;10.356;2023-11-21T03:36:00;5.57;;;4.77;;
7045;SDS011;3564;53.326;10.356;2023-11-21T03:38:26;7.03;;;5.10;;
7045;SDS011;3564;53.326;10.356;2023-11-21T03:40:51;6.70;;;5.23;;
7045;SDS011;3564;53.326;10.356;2023-11-21T03:43:17;8.83;;;6.00;;
7045;SDS011;3564;53.326;10.356;2023-11-21T03:45:43;6.73;;;5.17;;
7045;SDS011;3564;53.326;10.356;2023-11-21T03:48:08;6.77;;;5.40;;
7045;SDS011;3564;53.326;10.356;2023-11-21T03:50:34;7.83;;;5.43;;
7045;SDS011;3564;53.326;10.356;2023-11-21T03:53:01;7.47;;;5.70;;
7045;SDS011;3564;53.326;10.356;2023-11-21T03:55:27;8.27;;;5.50;;
7045;SDS011;3564;53.326;10.356;2023-11-21T03:57:52;6.47;;;5.40;;
7045;SDS011;3564;53.326;10.356;2023-11-21T04:00:18;7.13;;;5.53;;
7045;SDS011;3564;53.326;10.356;2023-11-21T04:02:45;6.67;;;5.47;;
7045;SDS011;3564;53.326;10.356;2023-11-21T04:05:11;8.40;;;5.90;;
7045;SDS011;3564;53.326;10.356;2023-11-21T04:07:37;6.50;;;5.50;;
7045;SDS011;3564;53.326;10.356;2023-11-21T04:10:03;6.40;;;5.43;;
7045;SDS011;3564;53.326;10.356;2023-11-21T04:12:33;7.13;;;5.80;;
7045;SDS011;3564;53.326;10.356;2023-11-21T04:14:59;6.77;;;5.63;;
7045;SDS011;3564;53.326;10.356;2023-11-21T04:17:24;7.50;;;5.70;;
7045;SDS011;3564;53.326;10.356;2023-11-21T04:19:50;8.20;;;5.50;;
7045;SDS011;3564;53.326;10.356;2023-11-21T04:22:15;6.30;;;5.47;;
7045;SDS011;3564;53.326;10.356;2023-11-21T04:24:41;6.73;;;5.73;;
7045;SDS011;3564;53.326;10.356;2023-11-21T04:27:07;7.40;;;5.57;;
7045;SDS011;3564;53.326;10.356;2023-11-21T04:29:32;8.53;;;5.83;;
7045;SDS011;3564;53.326;10.356;2023-11-21T04:31:58;6.63;;;5.83;;
7045;SDS011;3564;53.326;10.356;2023-11-21T04:34:24;10.03;;;5.77;;
7045;SDS011;3564;53.326;10.356;2023-11-21T04:36:50;8.83;;;6.10;;
7045;SDS011;3564;53.326;10.356;2023-11-21T04:39:15;9.27;;;6.47;;
7045;SDS011;3564;53.326;10.356;2023-11-21T04:41:41;8.70;;;6.07;;
7045;SDS011;3564;53.326;10.356;2023-11-21T04:44:07;8.37;;;5.83;;
7045;SDS011;3564;53.326;10.356;2023-11-21T04:46:33;7.70;;;5.70;;
7045;SDS011;3564;53.326;10.356;2023-11-21T04:48:58;7.77;;;5.97;;
7045;SDS011;3564;53.326;10.356;2023-11-21T04:51:24;8.87;;;6.00;;
7045;SDS011;3564;53.326;10.356;2023-11-21T04:53:50;7.17;;;6.13;;
7045;SDS011;3564;53.326;10.356;2023-11-21T04:56:15;9.07;;;6.10;;
7045;SDS011;3564;53.326;10.356;2023-11-21T04:58:41;6.93;;;5.40;;
7045;SDS011;3564;53.326;10.356;2023-11-21T05:01:07;11.00;;;6.20;;
7045;SDS011;3564;53.326;10.356;2023-11-21T05:03:32;8.47;;;6.23;;
7045;SDS011;3564;53.326;10.356;2023-11-21T05:05:59;8.57;;;5.93;;
7045;SDS011;3564;53.326;10.356;2023-11-21T05:08:25;9.73;;;5.97;;
7045;SDS011;3564;53.326;10.356;2023-11-21T05:10:51;8.73;;;5.70;;
7045;SDS011;3564;53.326;10.356;2023-11-21T05:13:17;6.57;;;5.30;;
7045;SDS011;3564;53.326;10.356;2023-11-21T05:15:43;10.73;;;6.20;;
7045;SDS011;3564;53.326;10.356;2023-11-21T05:18:09;7.60;;;5.67;;
7045;SDS011;3564;53.326;10.356;2023-11-21T05:20:35;9.50;;;5.90;;
7045;SDS011;3564;53.326;10.356;2023-11-21T05:23:02;7.10;;;5.50;;
7045;SDS011;3564;53.326;10.356;2023-11-21T05:25:27;7.13;;;5.37;;
7045;SDS011;3564;53.326;10.356;2023-11-21T05:27:53;7.07;;;6.10;;
7045;SDS011;3564;53.326;10.356;2023-11-21T05:30:19;9.67;;;5.97;;
7045;SDS011;3564;53.326;10.356;2023-11-21T05:32:46;8.37;;;5.20;;
7045;SDS011;3564;53.326;10.356;2023-11-21T05:35:11;9.20;;;5.60;;
7045;SDS011;3564;53.326;10.356;2023-11-21T05:37:43;8.37;;;5.53;;
7045;SDS011;3564;53.326;10.356;2023-11-21T05:40:10;7.90;;;5.63;;
7045;SDS011;3564;53.326;10.356;2023-11-21T05:42:36;7.17;;;5.20;;
7045;SDS011;3564;53.326;10.356;2023-11-21T05:45:04;7.87;;;5.73;;
7045;SDS011;3564;53.326;10.356;2023-11-21T05:47:35;8.60;;;5.57;;
7045;SDS011;3564;53.326;10.356;2023-11-21T05:50:10;8.33;;;5.60;;
7045;SDS011;3564;53.326;10.356;2023-11-21T05:52:37;8.50;;;5.80;;
7045;SDS011;3564;53.326;10.356;2023-11-21T05:55:05;9.30;;;6.20;;
7045;SDS011;3564;53.326;10.356;2023-11-21T05:57:36;9.37;;;5.77;;
7045;SDS011;3564;53.326;10.356;2023-11-21T06:00:10;9.13;;;6.43;;
7045;SDS011;3564;53.326;10.356;2023-11-21T06:02:46;9.07;;;5.63;;
7045;SDS011;3564;53.326;10.356;2023-11-21T06:05:12;8.10;;;5.83;;
7045;SDS011;3564;53.326;10.356;2023-11-21T06:07:38;7.90;;;5.80;;
7045;SDS011;3564;53.326;10.356;2023-11-21T06:10:05;8.73;;;6.00;;
7045;SDS011;3564;53.326;10.356;2023-11-21T06:12:34;7.40;;;6.00;;
7045;SDS011;3564;53.326;10.356;2023-11-21T06:15:04;6.47;;;5.60;;
7045;SDS011;3564;53.326;10.356;2023-11-21T06:17:32;7.63;;;5.87;;
7045;SDS011;3564;53.326;10.356;2023-11-21T06:20:01;9.07;;;5.77;;
7045;SDS011;3564;53.326;10.356;2023-11-21T06:22:34;8.33;;;6.10;;
7045;SDS011;3564;53.326;10.356;2023-11-21T06:25:02;7.27;;;6.00;;
7045;SDS011;3564;53.326;10.356;2023-11-21T06:27:33;8.13;;;6.10;;
7045;SDS011;3564;53.326;10.356;2023-11-21T06:30:01;9.30;;;6.73;;
7045;SDS011;3564;53.326;10.356;2023-11-21T06:32:27;8.80;;;6.63;;
7045;SDS011;3564;53.326;10.356;2023-11-21T06:34:55;8.70;;;6.63;;
7045;SDS011;3564;53.326;10.356;2023-11-21T06:37:20;9.23;;;6.33;;
7045;SDS011;3564;53.326;10.356;2023-11-21T06:39:48;8.43;;;6.23;;
7045;SDS011;3564;53.326;10.356;2023-11-21T06:42:17;8.67;;;6.37;;
7045;SDS011;3564;53.326;10.356;2023-11-21T06:44:44;9.70;;;6.43;;
7045;SDS011;3564;53.326;10.356;2023-11-21T06:47:10;7.87;;;6.27;;
7045;SDS011;3564;53.326;10.356;2023-11-21T06:49:36;8.90;;;6.60;;
7045;SDS011;3564;53.326;10.356;2023-11-21T06:52:03;8.53;;;6.17;;
7045;SDS011;3564;53.326;10.356;2023-11-21T06:54:33;8.80;;;6.07;;
7045;SDS011;3564;53.326;10.356;2023-11-21T06:56:59;9.13;;;6.13;;
7045;SDS011;3564;53.326;10.356;2023-11-21T06:59:25;8.27;;;5.87;;
7045;SDS011;3564;53.326;10.356;2023-11-21T07:01:53;7.63;;;6.07;;
7045;SDS011;3564;53.326;10.356;2023-11-21T07:04:19;9.07;;;6.30;;
7045;SDS011;3564;53.326;10.356;2023-11-21T07:06:45;8.73;;;6.30;;
7045;SDS011;3564;53.326;10.356;2023-11-21T07:09:10;10.00;;;6.40;;
7045;SDS011;3564;53.326;10.356;2023-11-21T07:11:36;8.00;;;6.53;;
7045;SDS011;3564;53.326;10.356;2023-11-21T07:14:05;9.27;;;6.37;;
7045;SDS011;3564;53.326;10.356;2023-11-21T07:16:34;8.70;;;6.37;;
7045;SDS011;3564;53.326;10.356;2023-11-21T07:19:03;8.67;;;6.70;;
7045;SDS011;3564;53.326;10.356;2023-11-21T07:21:31;8.23;;;6.80;;
7045;SDS011;3564;53.326;10.356;2023-11-21T07:24:01;8.80;;;6.93;;
7045;SDS011;3564;53.326;10.356;2023-11-21T07:26:31;8.57;;;6.57;;
7045;SDS011;3564;53.326;10.356;2023-11-21T07:28:57;10.17;;;6.60;;
7045;SDS011;3564;53.326;10.356;2023-11-21T07:31:22;8.50;;;6.83;;
7045;SDS011;3564;53.326;10.356;2023-11-21T07:33:49;9.70;;;7.20;;
7045;SDS011;3564;53.326;10.356;2023-11-21T07:36:16;10.47;;;7.00;;
7045;SDS011;3564;53.326;10.356;2023-11-21T07:38:43;7.77;;;6.43;;
7045;SDS011;3564;53.326;10.356;2023-11-21T07:41:09;8.67;;;6.67;;
7045;SDS011;3564;53.326;10.356;2023-11-21T07:43:36;10.13;;;6.53;;
7045;SDS011;3564;53.326;10.356;2023-11-21T07:46:02;7.83;;;6.27;;
7045;SDS011;3564;53.326;10.356;2023-11-21T07:48:31;8.60;;;6.77;;
7045;SDS011;3564;53.326;10.356;2023-11-21T07:50:58;8.00;;;6.40;;
7045;SDS011;3564;53.326;10.356;2023-11-21T07:53:27;8.47;;;6.20;;
7045;SDS011;3564;53.326;10.356;2023-11-21T07:55:55;7.40;;;6.10;;
7045;SDS011;3564;53.326;10.356;2023-11-21T07:58:20;9.07;;;6.17;;
7045;SDS011;3564;53.326;10.356;2023-11-21T08:00:46;11.63;;;6.73;;
7045;SDS011;3564;53.326;10.356;2023-11-21T08:03:15;15.10;;;7.50;;
7045;SDS011;3564;53.326;10.356;2023-11-21T08:05:41;10.40;;;6.43;;
7045;SDS011;3564;53.326;10.356;2023-11-21T08:08:06;7.13;;;5.77;;
7045;SDS011;3564;53.326;10.356;2023-11-21T08:10:32;7.60;;;6.23;;
7045;SDS011;3564;53.326;10.356;2023-11-21T08:12:58;8.27;;;6.57;;
7045;SDS011;3564;53.326;10.356;2023-11-21T08:15:23;8.60;;;6.70;;
7045;SDS011;3564;53.326;10.356;2023-11-21T08:17:49;8.23;;;5.87;;
7045;SDS011;3564;53.326;10.356;2023-11-21T08:20:15;8.23;;;6.13;;
7045;SDS011;3564;53.326;10.356;2023-11-21T08:22:44;7.40;;;5.90;;
7045;SDS011;3564;53.326;10.356;2023-11-21T08:25:10;7.27;;;6.00;;
7045;SDS011;3564;53.326;10.356;2023-11-21T08:27:36;7.87;;;6.30;;
7045;SDS011;3564;53.326;10.356;2023-11-21T08:30:04;9.63;;;6.67;;
7045;SDS011;3564;53.326;10.356;2023-11-21T08:32:31;7.77;;;6.00;;
7045;SDS011;3564;53.326;10.356;2023-11-21T08:35:00;9.03;;;6.50;;
7045;SDS011;3564;53.326;10.356;2023-11-21T08:37:26;7.83;;;6.30;;
7045;SDS011;3564;53.326;10.356;2023-11-21T08:39:52;7.77;;;6.60;;
7045;SDS011;3564;53.326;10.356;2023-11-21T08:42:18;10.57;;;6.57;;
7045;SDS011;3564;53.326;10.356;2023-11-21T08:44:44;9.13;;;6.63;;
7045;SDS011;3564;53.326;10.356;2023-11-21T08:47:09;9.90;;;6.63;;
7045;SDS011;3564;53.326;10.356;2023-11-21T08:49:35;9.43;;;6.23;;
7045;SDS011;3564;53.326;10.356;2023-11-21T08:52:01;8.33;;;6.50;;
7045;SDS011;3564;53.326;10.356;2023-11-21T08:54:27;9.43;;;6.77;;
7045;SDS011;3564;53.326;10.356;2023-11-21T08:56:53;9.37;;;6.80;;
7045;SDS011;3564;53.326;10.356;2023-11-21T08:59:19;11.40;;;7.40;;
7045;SDS011;3564;53.326;10.356;2023-11-21T09:01:45;13.80;;;7.57;;
7045;SDS011;3564;53.326;10.356;2023-11-21T09:04:11;10.50;;;7.63;;
7045;SDS011;3564;53.326;10.356;2023-11-21T09:06:37;9.43;;;6.67;;
7045;SDS011;3564;53.326;10.356;2023-11-21T09:09:04;11.10;;;7.17;;
7045;SDS011;3564;53.326;10.356;2023-11-21T09:11:31;8.20;;;6.80;;
7045;SDS011;3564;53.326;10.356;2023-11-21T09:13:59;8.63;;;6.07;;
7045;SDS011;3564;53.326;10.356;2023-11-21T09:16:25;9.43;;;7.40;;
7045;SDS011;3564;53.326;10.356;2023-11-21T09:18:50;7.77;;;5.83;;
7045;SDS011;3564;53.326;10.356;2023-11-21T09:21:16;9.03;;;6.50;;
7045;SDS011;3564;53.326;10.356;2023-11-21T09:23:44;8.03;;;6.20;;
7045;SDS011;3564;53.326;10.356;2023-11-21T09:26:09;7.87;;;5.70;;
7045;SDS011;3564;53.326;10.356;2023-11-21T09:28:35;7.33;;;5.23;;
7045;SDS011;3564;53.326;10.356;2023-11-21T09:31:02;6.77;;;5.50;;
7045;SDS011;3564;53.326;10.356;2023-11-21T09:33:29;8.23;;;5.40;;
7045;SDS011;3564;53.326;10.356;2023-11-21T09:35:56;7.17;;;5.33;;
7045;SDS011;3564;53.326;10.356;2023-11-21T09:38:22;8.17;;;6.30;;
7045;SDS011;3564;53.326;10.356;2023-11-21T09:40:48;5.93;;;5.10;;
7045;SDS011;3564;53.326;10.356;2023-11-21T09:43:16;7.30;;;5.53;;
7045;SDS011;3564;53.326;10.356;2023-11-21T09:45:44;7.77;;;5.10;;
7045;SDS011;3564;53.326;10.356;2023-11-21T09:48:18;7.07;;;5.07;;
7045;SDS011;3564;53.326;10.356;2023-11-21T09:50:46;5.93;;;4.87;;
7045;SDS011;3564;53.326;10.356;2023-11-21T09:53:13;5.83;;;4.87;;
7045;SDS011;3564;53.326;10.356;2023-11-21T09:55:46;6.23;;;4.97;;
7045;SDS011;3564;53.326;10.356;2023-11-21T09:58:14;6.87;;;5.10;;
7045;SDS011;3564;53.326;10.356;2023-11-21T10:00:40;6.17;;;5.00;;
7045;SDS011;3564;53.326;10.356;2023-11-21T10:03:08;5.63;;;4.93;;
7045;SDS011;3564;53.326;10.356;2023-11-21T10:05:34;5.83;;;4.77;;
7045;SDS011;3564;53.326;10.356;2023-11-21T10:08:00;7.33;;;4.50;;
7045;SDS011;3564;53.326;10.356;2023-11-21T10:10:27;5.67;;;4.47;;
7045;SDS011;3564;53.326;10.356;2023-11-21T10:12:55;6.93;;;4.70;;
7045;SDS011;3564;53.326;10.356;2023-11-21T10:15:22;6.10;;;4.67;;
7045;SDS011;3564;53.326;10.356;2023-11-21T10:17:50;5.43;;;4.47;;
7045;SDS011;3564;53.326;10.356;2023-11-21T10:20:18;6.23;;;4.10;;
7045;SDS011;3564;53.326;10.356;2023-11-21T10:22:44;6.00;;;4.60;;
7045;SDS011;3564;53.326;10.356;2023-11-21T10:25:11;7.27;;;4.80;;
7045;SDS011;3564;53.326;10.356;2023-11-21T10:27:40;7.00;;;4.20;;
7045;SDS011;3564;53.326;10.356;2023-11-21T10:30:06;7.13;;;4.40;;
7045;SDS011;3564;53.326;10.356;2023-11-21T10:32:38;6.83;;;4.83;;
7045;SDS011;3564;53.326;10.356;2023-11-21T10:35:07;4.67;;;4.03;;
7045;SDS011;3564;53.326;10.356;2023-11-21T10:37:38;7.53;;;4.33;;
7045;SDS011;3564;53.326;10.356;2023-11-21T10:40:05;4.27;;;3.57;;
7045;SDS011;3564;53.326;10.356;2023-11-21T10:42:41;4.23;;;3.83;;
7045;SDS011;3564;53.326;10.356;2023-11-21T10:45:09;6.03;;;4.17;;
7045;SDS011;3564;53.326;10.356;2023-11-21T10:47:41;5.27;;;4.20;;
7045;SDS011;3564;53.326;10.356;2023-11-21T10:50:08;5.23;;;4.27;;
7045;SDS011;3564;53.326;10.356;2023-11-21T10:52:39;6.63;;;4.40;;
7045;SDS011;3564;53.326;10.356;2023-11-21T10:55:17;4.07;;;3.67;;
7045;SDS011;3564;53.326;10.356;2023-11-21T10:57:48;4.37;;;3.70;;
7045;SDS011;3564;53.326;10.356;2023-11-21T11:00:16;5.13;;;3.80;;
7045;SDS011;3564;53.326;10.356;2023-11-21T11:02:45;4.87;;;4.40;;
7045;SDS011;3564;53.326;10.356;2023-11-21T11:05:19;4.27;;;3.87;;
7045;SDS011;3564;53.326;10.356;2023-11-21T11:07:47;5.10;;;3.83;;
7045;SDS011;3564;53.326;10.356;2023-11-21T11:10:17;3.73;;;3.33;;
7045;SDS011;3564;53.326;10.356;2023-11-21T11:12:45;3.37;;;3.07;;
7045;SDS011;3564;53.326;10.356;2023-11-21T11:15:12;4.63;;;3.20;;
7045;SDS011;3564;53.326;10.356;2023-11-21T11:17:39;5.60;;;3.30;;
7045;SDS011;3564;53.326;10.356;2023-11-21T11:20:07;5.53;;;3.37;;
7045;SDS011;3564;53.326;10.356;2023-11-21T11:25:30;3.73;;;3.37;;
7045;SDS011;3564;53.326;10.356;2023-11-21T11:28:26;4.23;;;3.37;;
7045;SDS011;3564;53.326;10.356;2023-11-21T11:31:05;3.63;;;3.20;;
7045;SDS011;3564;53.326;10.356;2023-11-21T11:33:59;4.50;;;3.03;;
7045;SDS011;3564;53.326;10.356;2023-11-21T11:36:51;3.87;;;3.23;;
7045;SDS011;3564;53.326;10.356;2023-11-21T11:39:38;3.27;;;2.50;;
7045;SDS011;3564;53.326;10.356;2023-11-21T11:42:14;3.97;;;2.97;;
7045;SDS011;3564;53.326;10.356;2023-11-21T11:44:46;3.80;;;3.20;;
7045;SDS011;3564;53.326;10.356;2023-11-21T11:47:26;3.40;;;3.00;;
7045;SDS011;3564;53.326;10.356;2023-11-21T11:50:08;3.60;;;3.27;;
7045;SDS011;3564;53.326;10.356;2023-11-21T11:52:43;5.40;;;3.47;;
7045;SDS011;3564;53.326;10.356;2023-11-21T11:55:10;3.77;;;3.10;;
7045;SDS011;3564;53.326;10.356;2023-11-21T11:57:43;4.97;;;2.90;;
7045;SDS011;3564;53.326;10.356;2023-11-21T12:02:56;3.57;;;3.00;;
7045;SDS011;3564;53.326;10.356;2023-11-21T12:05:28;5.03;;;3.03;;
7045;SDS011;3564;53.326;10.356;2023-11-21T12:08:06;3.77;;;3.30;;
7045;SDS011;3564;53.326;10.356;2023-11-21T12:10:33;4.97;;;2.70;;
7045;SDS011;3564;53.326;10.356;2023-11-21T12:13:01;3.83;;;3.20;;
7045;SDS011;3564;53.326;10.356;2023-11-21T12:15:32;4.37;;;3.50;;
7045;SDS011;3564;53.326;10.356;2023-11-21T12:17:58;3.47;;;3.10;;
7045;SDS011;3564;53.326;10.356;2023-11-21T12:20:24;4.40;;;2.73;;
7045;SDS011;3564;53.326;10.356;2023-11-21T12:22:52;3.77;;;2.80;;
7045;SDS011;3564;53.326;10.356;2023-11-21T12:25:29;3.70;;;2.90;;
7045;SDS011;3564;53.326;10.356;2023-11-21T12:27:59;5.03;;;2.77;;
7045;SDS011;3564;53.326;10.356;2023-11-21T12:30:26;4.97;;;3.27;;
7045;SDS011;3564;53.326;10.356;2023-11-21T12:32:55;4.80;;;3.40;;
7045;SDS011;3564;53.326;10.356;2023-11-21T12:35:23;4.70;;;3.20;;
7045;SDS011;3564;53.326;10.356;2023-11-21T12:37:51;3.97;;;2.90;;
7045;SDS011;3564;53.326;10.356;2023-11-21T12:40:17;4.77;;;2.97;;
7045;SDS011;3564;53.326;10.356;2023-11-21T12:42:43;5.17;;;3.00;;
7045;SDS011;3564;53.326;10.356;2023-11-21T12:47:49;5.97;;;3.07;;
7045;SDS011;3564;53.326;10.356;2023-11-21T12:50:18;3.60;;;2.73;;
7045;SDS011;3564;53.326;10.356;2023-11-21T12:52:52;4.27;;;2.90;;
7045;SDS011;3564;53.326;10.356;2023-11-21T12:55:19;4.73;;;2.90;;
7045;SDS011;3564;53.326;10.356;2023-11-21T12:57:50;4.60;;;3.57;;
7045;SDS011;3564;53.326;10.356;2023-11-21T13:00:17;3.60;;;2.90;;
7045;SDS011;3564;53.326;10.356;2023-11-21T13:02:57;3.47;;;2.93;;
7045;SDS011;3564;53.326;10.356;2023-11-21T13:05:30;2.80;;;2.60;;
7045;SDS011;3564;53.326;10.356;2023-11-21T13:08:01;3.27;;;2.97;;
7045;SDS011;3564;53.326;10.356;2023-11-21T13:10:29;3.43;;;2.90;;
7045;SDS011;3564;53.326;10.356;2023-11-21T13:13:02;3.27;;;2.90;;
7045;SDS011;3564;53.326;10.356;2023-11-21T13:15:30;4.10;;;3.13;;
7045;SDS011;3564;53.326;10.356;2023-11-21T13:17:58;3.70;;;3.27;;
7045;SDS011;3564;53.326;10.356;2023-11-21T13:20:24;4.47;;;3.40;;
7045;SDS011;3564;53.326;10.356;2023-11-21T13:22:54;3.67;;;3.17;;
7045;SDS011;3564;53.326;10.356;2023-11-21T13:25:26;5.20;;;3.20;;
7045;SDS011;3564;53.326;10.356;2023-11-21T13:27:55;5.27;;;3.43;;
7045;SDS011;3564;53.326;10.356;2023-11-21T13:30:22;4.27;;;3.43;;
7045;SDS011;3564;53.326;10.356;2023-11-21T13:32:53;6.70;;;3.73;;
7045;SDS011;3564;53.326;10.356;2023-11-21T13:35:27;7.57;;;4.03;;
7045;SDS011;3564;53.326;10.356;2023-11-21T13:37:57;5.40;;;4.07;;
7045;SDS011;3564;53.326;10.356;2023-11-21T13:40:35;5.20;;;3.40;;
7045;SDS011;3564;53.326;10.356;2023-11-21T13:43:08;6.30;;;3.87;;
7045;SDS011;3564;53.326;10.356;2023-11-21T13:45:37;4.73;;;3.50;;
7045;SDS011;3564;53.326;10.356;2023-11-21T13:48:07;4.17;;;3.30;;
7045;SDS011;3564;53.326;10.356;2023-11-21T13:50:42;3.77;;;3.37;;
7045;SDS011;3564;53.326;10.356;2023-11-21T13:53:23;5.47;;;3.40;;
7045;SDS011;3564;53.326;10.356;2023-11-21T13:55:49;3.90;;;3.10;;
7045;SDS011;3564;53.326;10.356;2023-11-21T13:58:16;4.27;;;3.30;;
7045;SDS011;3564;53.326;10.356;2023-11-21T14:00:49;4.33;;;3.73;;
7045;SDS011;3564;53.326;10.356;2023-11-21T14:03:22;4.33;;;3.20;;
7045;SDS011;3564;53.326;10.356;2023-11-21T14:05:57;4.93;;;3.50;;
7045;SDS011;3564;53.326;10.356;2023-11-21T14:08:25;4.40;;;3.30;;
7045;SDS011;3564;53.326;10.356;2023-11-21T14:10:56;5.73;;;3.53;;
7045;SDS011;3564;53.326;10.356;2023-11-21T14:13:24;3.73;;;3.20;;
7045;SDS011;3564;53.326;10.356;2023-11-21T14:15:50;4.57;;;3.33;;
7045;SDS011;3564;53.326;10.356;2023-11-21T14:18:26;4.23;;;3.30;;
7045;SDS011;3564;53.326;10.356;2023-11-21T14:21:01;4.47;;;3.30;;
7045;SDS011;3564;53.326;10.356;2023-11-21T14:23:26;3.63;;;3.17;;
7045;SDS011;3564;53.326;10.356;2023-11-21T14:25:53;3.80;;;3.20;;
7045;SDS011;3564;53.326;10.356;2023-11-21T14:28:19;3.90;;;3.37;;
7045;SDS011;3564;53.326;10.356;2023-11-21T14:30:48;4.47;;;3.10;;
7045;SDS011;3564;53.326;10.356;2023-11-21T14:33:13;3.60;;;3.10;;
7045;SDS011;3564;53.326;10.356;2023-11-21T14:35:41;5.73;;;3.43;;
7045;SDS011;3564;53.326;10.356;2023-11-21T14:38:08;6.23;;;3.40;;
7045;SDS011;3564;53.326;10.356;2023-11-21T14:40:35;4.73;;;3.03;;
7045;SDS011;3564;53.326;10.356;2023-11-21T14:43:01;4.80;;;3.60;;
7045;SDS011;3564;53.326;10.356;2023-11-21T14:45:31;3.70;;;3.30;;
7045;SDS011;3564;53.326;10.356;2023-11-21T14:47:59;3.77;;;3.20;;
7045;SDS011;3564;53.326;10.356;2023-11-21T14:50:28;4.53;;;3.37;;
7045;SDS011;3564;53.326;10.356;2023-11-21T14:53:09;5.30;;;3.67;;
7045;SDS011;3564;53.326;10.356;2023-11-21T14:55:38;4.93;;;2.93;;
7045;SDS011;3564;53.326;10.356;2023-11-21T14:58:18;5.07;;;3.10;;
7045;SDS011;3564;53.326;10.356;2023-11-21T15:00:57;4.07;;;3.50;;
7045;SDS011;3564;53.326;10.356;2023-11-21T15:03:24;4.70;;;4.30;;
7045;SDS011;3564;53.326;10.356;2023-11-21T15:05:57;6.93;;;4.73;;
7045;SDS011;3564;53.326;10.356;2023-11-21T15:08:48;5.50;;;4.00;;
7045;SDS011;3564;53.326;10.356;2023-11-21T15:11:24;4.83;;;3.83;;
7045;SDS011;3564;53.326;10.356;2023-11-21T15:13:55;4.90;;;3.70;;